createdAt,value
2022-11-24T00:01:16.533Z,9.00
2022-11-24T00:03:44.776Z,9.00
2022-11-24T00:06:16.086Z,9.00
2022-11-24T00:08:46.065Z,9.00
2022-11-24T00:11:16.036Z,9.00
2022-11-24T00:13:44.614Z,9.00
2022-11-24T00:16:17.209Z,9.00
2022-11-24T00:18:47.046Z,9.10
2022-11-24T00:21:17.753Z,9.10
2022-11-24T00:23:46.612Z,9.10
2022-11-24T00:26:17.031Z,9.10
2022-11-24T00:28:46.068Z,9.10
2022-11-24T00:31:19.326Z,9.20
2022-11-24T00:33:49.063Z,9.20
2022-11-24T00:36:20.175Z,9.10
2022-11-24T00:38:48.502Z,9.10
2022-11-24T00:41:16.484Z,9.20
2022-11-24T00:43:44.490Z,9.10
2022-11-24T00:46:13.010Z,9.10
2022-11-24T00:48:41.116Z,9.10
2022-11-24T00:51:10.970Z,9.10
2022-11-24T00:53:40.456Z,9.10
2022-11-24T00:56:09.579Z,9.10
2022-11-24T00:58:38.580Z,9.10
2022-11-24T01:01:08.796Z,9.10
2022-11-24T01:03:36.943Z,9.10
2022-11-24T01:06:06.595Z,9.10
2022-11-24T01:08:34.775Z,9.10
2022-11-24T01:11:16.005Z,9.10
2022-11-24T01:13:45.932Z,9.10
2022-11-24T01:16:18.777Z,9.00
2022-11-24T01:18:47.617Z,9.10
2022-11-24T01:21:16.681Z,9.00
2022-11-24T01:23:45.154Z,9.10
2022-11-24T01:26:16.763Z,9.10
2022-11-24T01:28:47.542Z,9.10
2022-11-24T01:31:17.374Z,9.10
2022-11-24T01:33:45.490Z,9.10
2022-11-24T01:36:13.574Z,9.20
2022-11-24T01:38:41.659Z,9.20
2022-11-24T01:41:14.856Z,9.20
2022-11-24T01:43:43.610Z,9.20
2022-11-24T01:46:18.207Z,9.20
2022-11-24T01:48:50.319Z,9.20
2022-11-24T01:51:22.281Z,9.20
2022-11-24T01:53:56.167Z,9.20
2022-11-24T01:56:26.423Z,9.20
2022-11-24T01:58:57.888Z,9.10
2022-11-24T02:01:26.425Z,9.10
2022-11-24T02:03:54.648Z,9.20
2022-11-24T02:06:26.929Z,9.20
2022-11-24T02:09:01.047Z,9.30
2022-11-24T02:11:36.075Z,9.20
2022-11-24T02:14:06.027Z,9.20
2022-11-24T02:16:36.705Z,9.20
2022-11-24T02:19:09.033Z,9.30
2022-11-24T02:21:37.209Z,9.20
2022-11-24T02:24:11.553Z,9.20
2022-11-24T02:26:45.764Z,9.20
2022-11-24T02:29:15.392Z,9.20
2022-11-24T02:31:47.117Z,9.20
2022-11-24T02:34:15.226Z,9.20
2022-11-24T02:36:43.191Z,9.20
2022-11-24T02:39:13.031Z,9.20
2022-11-24T02:41:43.993Z,9.20
2022-11-24T02:44:14.923Z,9.20
2022-11-24T02:46:42.939Z,9.20
2022-11-24T02:49:10.955Z,9.20
2022-11-24T02:51:40.816Z,9.20
2022-11-24T02:54:08.818Z,9.20
2022-11-24T02:56:36.785Z,9.20
2022-11-24T02:59:06.506Z,9.20
2022-11-24T03:01:34.472Z,9.20
2022-11-24T03:04:02.447Z,9.20
2022-11-24T03:06:30.464Z,9.20
2022-11-24T03:08:58.449Z,9.20
2022-11-24T03:11:26.472Z,9.10
2022-11-24T03:13:54.413Z,9.10
2022-11-24T03:16:23.839Z,9.10
2022-11-24T03:18:52.318Z,9.10
2022-11-24T03:21:20.561Z,9.10
2022-11-24T03:23:48.510Z,9.00
2022-11-24T03:26:18.389Z,9.00
2022-11-24T03:28:46.465Z,9.00
2022-11-24T03:31:15.285Z,9.00
2022-11-24T03:33:44.632Z,9.10
2022-11-24T03:36:12.583Z,9.00
2022-11-24T03:38:40.643Z,9.10
2022-11-24T03:41:08.583Z,9.10
2022-11-24T03:43:41.978Z,9.10
2022-11-24T03:46:12.137Z,9.10
2022-11-24T03:48:40.299Z,9.10
2022-11-24T03:51:10.687Z,9.10
2022-11-24T03:53:38.673Z,9.10
2022-11-24T03:56:06.862Z,9.10
2022-11-24T03:58:34.841Z,9.00
2022-11-24T04:01:03.485Z,9.00
2022-11-24T04:03:31.473Z,9.00
2022-11-24T04:06:10.168Z,9.00
2022-11-24T04:08:38.132Z,9.00
2022-11-24T04:11:07.023Z,9.10
2022-11-24T04:13:33.967Z,9.00
2022-11-24T04:16:05.964Z,9.00
2022-11-24T04:18:33.858Z,9.10
2022-11-24T04:21:01.676Z,9.10
2022-11-24T04:23:30.853Z,9.10
2022-11-24T04:25:58.663Z,9.10
2022-11-24T04:28:26.548Z,9.20
2022-11-24T04:30:54.425Z,9.20
2022-11-24T04:33:22.267Z,9.20
2022-11-24T04:35:53.953Z,9.30
2022-11-24T04:39:19.899Z,9.30
2022-11-24T04:41:11.326Z,9.30
2022-11-24T04:43:40.803Z,9.30
2022-11-24T04:46:11.617Z,9.30
2022-11-24T04:48:39.918Z,9.30
2022-11-24T04:51:08.578Z,9.30
2022-11-24T04:53:36.469Z,9.40
2022-11-24T04:56:06.062Z,9.30
2022-11-24T04:58:35.273Z,9.30
2022-11-24T05:01:03.296Z,9.30
2022-11-24T05:03:31.121Z,9.30
2022-11-24T05:06:00.350Z,9.30
2022-11-24T05:08:28.229Z,9.30
2022-11-24T05:10:56.030Z,9.30
2022-11-24T05:13:23.881Z,9.30
2022-11-24T05:15:53.091Z,9.30
2022-11-24T05:18:20.925Z,9.20
2022-11-24T05:20:49.453Z,9.20
2022-11-24T05:23:17.630Z,9.20
2022-11-24T05:25:47.839Z,9.30
2022-11-24T05:28:16.126Z,9.30
2022-11-24T05:30:44.409Z,9.30
2022-11-24T05:33:18.857Z,9.30
2022-11-24T05:35:46.875Z,9.30
2022-11-24T05:38:15.364Z,9.30
2022-11-24T05:40:43.362Z,9.30
2022-11-24T05:43:12.792Z,9.30
2022-11-24T05:45:40.666Z,9.30
2022-11-24T05:48:11.033Z,9.30
2022-11-24T05:50:40.269Z,9.30
2022-11-24T05:53:10.138Z,9.30
2022-11-24T05:55:38.392Z,9.30
2022-11-24T05:58:08.586Z,9.30
2022-11-24T06:00:37.295Z,9.30
2022-11-24T06:03:05.454Z,9.40
2022-11-24T06:05:33.366Z,9.40
2022-11-24T06:08:02.514Z,9.40
2022-11-24T06:10:30.365Z,9.40
2022-11-24T06:12:58.357Z,9.40
2022-11-24T06:15:26.272Z,9.40
2022-11-24T06:17:55.968Z,9.50
2022-11-24T06:20:28.294Z,9.50
2022-11-24T06:22:59.882Z,9.50
2022-11-24T06:25:29.855Z,9.50
2022-11-24T06:27:57.752Z,9.60
2022-11-24T06:30:25.618Z,9.60
2022-11-24T06:32:56.171Z,9.60
2022-11-24T06:35:24.006Z,9.60
2022-11-24T06:37:51.857Z,9.60
2022-11-24T06:40:19.819Z,9.60
2022-11-24T06:42:53.133Z,9.50
2022-11-24T06:45:20.963Z,9.60
2022-11-24T06:47:51.130Z,9.60
2022-11-24T06:50:32.121Z,9.50
2022-11-24T06:53:01.344Z,9.50
2022-11-24T06:55:36.733Z,9.60
2022-11-24T06:58:08.625Z,9.60
2022-11-24T07:00:42.601Z,9.60
2022-11-24T07:03:23.755Z,9.60
2022-11-24T07:05:57.322Z,9.60
2022-11-24T07:08:25.346Z,9.60
2022-11-24T07:10:53.563Z,9.60
2022-11-24T07:13:23.058Z,9.60
2022-11-24T07:15:50.899Z,9.60
2022-11-24T07:18:18.704Z,9.60
2022-11-24T07:20:46.511Z,9.60
2022-11-24T07:23:14.458Z,9.60
2022-11-24T07:25:42.272Z,9.60
2022-11-24T07:28:10.300Z,9.60
2022-11-24T07:30:39.480Z,9.60
2022-11-24T07:33:07.349Z,9.70
2022-11-24T07:35:35.192Z,9.70
2022-11-24T07:38:03.063Z,9.70
2022-11-24T07:40:31.032Z,9.70
2022-11-24T07:43:01.329Z,9.70
2022-11-24T07:45:29.225Z,9.70
2022-11-24T07:47:59.485Z,9.70
2022-11-24T07:50:27.354Z,9.70
2022-11-24T07:52:55.351Z,9.70
2022-11-24T07:55:23.152Z,9.60
2022-11-24T07:57:50.967Z,9.60
2022-11-24T08:00:19.575Z,9.50
2022-11-24T08:02:47.473Z,9.60
2022-11-24T08:05:16.886Z,9.60
2022-11-24T08:07:44.761Z,9.60
2022-11-24T08:10:12.815Z,9.60
2022-11-24T08:12:41.122Z,9.60
2022-11-24T08:15:11.610Z,9.60
2022-11-24T08:17:39.670Z,9.70
2022-11-24T08:20:09.708Z,9.60
2022-11-24T08:22:38.877Z,9.70
2022-11-24T08:25:07.594Z,9.70
2022-11-24T08:27:35.545Z,9.70
2022-11-24T08:30:03.434Z,9.70
2022-11-24T08:32:31.584Z,9.80
2022-11-24T08:35:08.577Z,9.80
2022-11-24T08:37:42.536Z,9.90
2022-11-24T08:40:11.803Z,9.80
2022-11-24T08:42:39.949Z,9.90
2022-11-24T08:45:20.521Z,9.90
2022-11-24T08:47:53.560Z,9.90
2022-11-24T08:50:21.745Z,9.90
2022-11-24T08:52:53.167Z,9.90
2022-11-24T08:55:21.985Z,9.90
2022-11-24T08:57:49.796Z,9.90
2022-11-24T09:00:22.651Z,9.90
2022-11-24T09:02:57.639Z,9.90
2022-11-24T09:05:50.662Z,10.00
2022-11-24T09:08:15.085Z,10.00
2022-11-24T09:10:43.059Z,10.00
2022-11-24T09:13:10.884Z,10.00
2022-11-24T09:15:38.694Z,9.90
2022-11-24T09:18:06.621Z,10.00
2022-11-24T09:20:34.503Z,9.90
2022-11-24T09:23:02.377Z,10.00
2022-11-24T09:25:31.565Z,9.90
2022-11-24T09:27:59.835Z,9.90
2022-11-24T09:30:27.740Z,9.90
2022-11-24T09:32:57.235Z,9.90
2022-11-24T09:35:25.641Z,9.90
2022-11-24T09:37:53.450Z,10.00
2022-11-24T09:40:22.040Z,10.00
2022-11-24T09:42:57.935Z,10.00
2022-11-24T09:46:04.411Z,10.00
2022-11-24T09:48:33.819Z,10.00
2022-11-24T09:51:04.340Z,10.10
2022-11-24T09:53:37.173Z,10.10
2022-11-24T09:56:16.978Z,10.10
2022-11-24T09:58:54.454Z,10.10
2022-11-24T10:01:27.221Z,10.10
2022-11-24T10:03:55.368Z,10.10
2022-11-24T10:06:27.442Z,10.10
2022-11-24T10:09:34.184Z,10.10
2022-11-24T10:12:14.523Z,10.10
2022-11-24T10:14:57.889Z,10.20
2022-11-24T10:17:41.528Z,10.20
2022-11-24T10:20:16.160Z,10.30
2022-11-24T10:22:52.749Z,10.40
2022-11-24T10:25:25.645Z,10.40
2022-11-24T10:27:59.961Z,10.50
2022-11-24T10:30:29.698Z,10.50
2022-11-24T10:33:02.230Z,10.60
2022-11-24T10:35:36.428Z,10.70
2022-11-24T10:38:17.138Z,10.60
2022-11-24T10:40:56.859Z,10.70
2022-11-24T10:43:28.231Z,10.70
2022-11-24T10:46:07.493Z,10.70
2022-11-24T10:48:42.375Z,10.80
2022-11-24T10:51:38.507Z,10.80
2022-11-24T10:54:13.200Z,10.90
2022-11-24T10:56:41.717Z,10.90
2022-11-24T10:59:33.455Z,10.90
2022-11-24T11:02:04.129Z,11.00
2022-11-24T11:04:34.692Z,11.00
2022-11-24T11:07:19.390Z,11.00
2022-11-24T11:09:48.927Z,11.10
2022-11-24T11:12:43.231Z,11.10
2022-11-24T11:15:27.245Z,11.00
2022-11-24T11:18:00.958Z,11.10
2022-11-24T11:20:31.261Z,11.10
2022-11-24T11:23:01.321Z,11.10
2022-11-24T11:25:34.358Z,11.20
2022-11-24T11:28:27.602Z,11.20
2022-11-24T11:31:19.732Z,11.20
2022-11-24T11:34:05.915Z,11.30
2022-11-24T11:36:40.292Z,11.40
2022-11-24T11:39:10.558Z,11.50
2022-11-24T11:41:42.144Z,11.80
2022-11-24T11:44:29.891Z,12.10
2022-11-24T11:47:00.478Z,12.40
2022-11-24T11:49:30.018Z,12.60
2022-11-24T11:52:15.346Z,12.80
2022-11-24T11:55:06.685Z,12.80
2022-11-24T11:57:43.746Z,12.70
2022-11-24T12:00:16.841Z,12.90
2022-11-24T12:03:27.297Z,13.10
2022-11-24T12:06:05.920Z,13.10
2022-11-24T12:09:18.549Z,13.50
2022-11-24T12:11:44.807Z,13.90
2022-11-24T12:14:25.238Z,14.40
2022-11-24T12:17:04.827Z,14.60
2022-11-24T12:19:50.693Z,14.80
2022-11-24T12:22:27.805Z,15.30
2022-11-24T12:25:03.842Z,15.60
2022-11-24T12:27:42.982Z,16.00
2022-11-24T12:30:14.249Z,16.40
2022-11-24T12:33:08.568Z,16.80
2022-11-24T12:35:39.504Z,17.40
2022-11-24T12:38:23.946Z,18.10
2022-11-24T12:41:33.774Z,18.70
2022-11-24T12:43:58.041Z,18.60
2022-11-24T12:46:34.694Z,17.80
2022-11-24T12:49:11.629Z,17.80
2022-11-24T12:51:43.095Z,18.00
2022-11-24T12:54:16.671Z,18.60
2022-11-24T12:56:50.703Z,19.80
2022-11-24T12:59:29.101Z,20.90
2022-11-24T13:02:07.495Z,22.00
2022-11-24T13:04:43.621Z,22.70
2022-11-24T13:07:15.203Z,23.40
2022-11-24T13:10:16.341Z,23.70
2022-11-24T13:12:56.839Z,24.20
2022-11-24T13:15:45.199Z,24.20
2022-11-24T13:18:44.649Z,24.10
2022-11-24T13:21:47.408Z,24.50
2022-11-24T13:24:31.720Z,24.40
2022-11-24T13:27:36.987Z,22.80
2022-11-24T13:30:51.343Z,21.20
2022-11-24T13:33:35.120Z,19.70
2022-11-24T13:36:31.501Z,18.80
2022-11-24T13:39:00.108Z,18.10
2022-11-24T13:42:08.630Z,17.90
2022-11-24T13:44:47.573Z,17.70
2022-11-24T13:47:38.437Z,17.30
2022-11-24T13:50:09.784Z,17.00
2022-11-24T13:52:50.888Z,16.70
2022-11-24T13:55:39.138Z,16.40
2022-11-24T13:58:32.761Z,16.10
2022-11-24T14:01:19.988Z,15.90
2022-11-24T14:04:34.199Z,15.70
2022-11-24T14:07:09.710Z,15.40
2022-11-24T14:09:45.725Z,15.00
2022-11-24T14:12:16.494Z,14.90
2022-11-24T14:14:47.780Z,14.80
2022-11-24T14:17:22.550Z,14.80
2022-11-24T14:19:53.424Z,14.90
2022-11-24T14:22:33.941Z,14.80
2022-11-24T14:25:03.584Z,14.90
2022-11-24T14:27:34.685Z,14.80
2022-11-24T14:30:05.229Z,14.90
2022-11-24T14:32:33.415Z,14.90
2022-11-24T14:35:03.408Z,14.90
2022-11-24T14:37:31.939Z,14.80
2022-11-24T14:40:00.035Z,14.60
2022-11-24T14:42:29.274Z,14.50
2022-11-24T14:44:59.747Z,14.40
2022-11-24T14:47:32.056Z,14.40
2022-11-24T14:50:10.231Z,14.30
2022-11-24T14:52:45.676Z,14.20
2022-11-24T14:55:26.347Z,14.20
2022-11-24T14:58:22.342Z,14.10
2022-11-24T15:01:11.870Z,14.10
2022-11-24T15:03:39.780Z,14.00
2022-11-24T15:06:18.838Z,13.90
2022-11-24T15:08:48.557Z,13.80
2022-11-24T15:11:16.918Z,13.70
2022-11-24T15:13:55.066Z,13.70
2022-11-24T15:16:25.999Z,13.70
2022-11-24T15:18:59.746Z,13.60
2022-11-24T15:21:36.662Z,13.60
2022-11-24T15:24:16.180Z,13.60
2022-11-24T15:26:44.799Z,13.50
2022-11-24T15:29:13.505Z,13.40
2022-11-24T15:31:44.185Z,13.40
2022-11-24T15:34:15.590Z,13.40
2022-11-24T15:36:44.811Z,13.40
2022-11-24T15:39:12.795Z,13.30
2022-11-24T15:41:42.779Z,13.20
2022-11-24T15:44:11.540Z,13.20
2022-11-24T15:46:39.859Z,13.10
2022-11-24T15:49:07.824Z,12.90
2022-11-24T15:51:36.927Z,12.80
2022-11-24T15:54:07.161Z,12.70
2022-11-24T15:56:36.888Z,12.60
2022-11-24T15:59:05.491Z,12.60
2022-11-24T16:01:34.770Z,12.60
2022-11-24T16:04:02.990Z,12.50
2022-11-24T16:06:31.123Z,12.50
2022-11-24T16:08:59.206Z,12.40
2022-11-24T16:11:31.095Z,12.40
2022-11-24T16:14:00.329Z,12.40
2022-11-24T16:16:28.274Z,12.30
2022-11-24T16:18:56.120Z,12.30
2022-11-24T16:21:24.223Z,12.20
2022-11-24T16:23:52.033Z,12.20
2022-11-24T16:26:19.864Z,12.20
2022-11-24T16:28:49.103Z,12.20
2022-11-24T16:31:17.898Z,12.10
2022-11-24T16:33:46.294Z,12.10
2022-11-24T16:36:14.706Z,12.00
2022-11-24T16:38:42.565Z,12.00
2022-11-24T16:41:10.868Z,12.00
2022-11-24T16:43:39.092Z,11.90
2022-11-24T16:46:18.934Z,11.90
2022-11-24T16:48:47.442Z,11.80
2022-11-24T16:51:15.836Z,11.80
2022-11-24T16:53:44.254Z,11.80
2022-11-24T16:56:12.623Z,11.70
2022-11-24T16:58:41.855Z,11.70
2022-11-24T17:01:11.871Z,11.60
2022-11-24T17:03:41.387Z,11.60
2022-11-24T17:06:11.367Z,11.50
2022-11-24T17:08:40.912Z,11.50
2022-11-24T17:11:10.311Z,11.50
2022-11-24T17:13:38.813Z,11.50
2022-11-24T17:16:07.973Z,11.50
2022-11-24T17:18:35.918Z,11.40
2022-11-24T17:21:09.844Z,11.40
2022-11-24T17:23:38.989Z,11.30
2022-11-24T17:26:08.525Z,11.30
2022-11-24T17:28:36.888Z,11.30
2022-11-24T17:31:08.590Z,11.30
2022-11-24T17:33:36.961Z,11.20
2022-11-24T17:36:07.456Z,11.20
2022-11-24T17:38:35.945Z,11.20
2022-11-24T17:41:05.007Z,11.20
2022-11-24T17:43:32.923Z,11.20
2022-11-24T17:46:02.591Z,11.10
2022-11-24T17:48:31.614Z,11.10
2022-11-24T17:51:00.821Z,11.10
2022-11-24T17:53:30.652Z,11.00
2022-11-24T17:56:00.727Z,11.00
2022-11-24T17:58:32.557Z,11.00
2022-11-24T18:01:00.901Z,11.00
2022-11-24T18:03:43.589Z,10.90
2022-11-24T18:06:12.960Z,10.80
2022-11-24T18:08:43.786Z,10.70
2022-11-24T18:11:13.416Z,10.70
2022-11-24T18:13:58.407Z,10.60
2022-11-24T18:16:30.160Z,10.70
2022-11-24T18:19:08.250Z,10.60
2022-11-24T18:21:37.007Z,10.60
2022-11-24T18:24:06.673Z,10.50
2022-11-24T18:26:34.658Z,10.50
2022-11-24T18:29:02.775Z,10.60
2022-11-24T18:31:32.254Z,10.50
2022-11-24T18:34:03.469Z,10.40
2022-11-24T18:36:31.318Z,10.30
2022-11-24T18:39:00.932Z,10.40
2022-11-24T18:41:30.339Z,10.40
2022-11-24T18:44:00.234Z,10.40
2022-11-24T18:46:28.072Z,10.30
2022-11-24T18:48:56.286Z,10.30
2022-11-24T18:51:24.088Z,10.30
2022-11-24T18:53:54.327Z,10.20
2022-11-24T18:56:23.105Z,10.20
2022-11-24T18:58:55.200Z,10.20
2022-11-24T19:01:24.913Z,10.30
2022-11-24T19:03:54.494Z,10.20
2022-11-24T19:06:24.363Z,10.10
2022-11-24T19:08:54.660Z,10.10
2022-11-24T19:11:25.336Z,10.10
2022-11-24T19:13:55.043Z,10.00
2022-11-24T19:16:23.750Z,10.00
2022-11-24T19:18:54.361Z,10.00
2022-11-24T19:21:22.812Z,10.00
2022-11-24T19:23:50.878Z,10.00
2022-11-24T19:26:19.484Z,10.00
2022-11-24T19:28:47.598Z,10.00
2022-11-24T19:31:18.728Z,10.00
2022-11-24T19:33:46.761Z,10.00
2022-11-24T19:36:16.408Z,10.00
2022-11-24T19:38:49.838Z,9.90
2022-11-24T19:41:19.533Z,9.90
2022-11-24T19:43:48.107Z,9.90
2022-11-24T19:46:19.790Z,9.90
2022-11-24T19:48:49.974Z,9.90
2022-11-24T19:51:19.919Z,9.80
2022-11-24T19:53:51.042Z,9.80
2022-11-24T19:56:20.337Z,9.80
2022-11-24T19:58:49.241Z,9.80
2022-11-24T20:01:20.624Z,9.80
2022-11-24T20:03:54.344Z,9.80
2022-11-24T20:06:22.276Z,9.90
2022-11-24T20:08:50.216Z,9.90
2022-11-24T20:11:19.825Z,9.90
2022-11-24T20:13:49.670Z,9.90
2022-11-24T20:16:20.621Z,10.00
2022-11-24T20:18:49.054Z,9.90
2022-11-24T20:21:19.230Z,9.80
2022-11-24T20:23:54.380Z,9.80
2022-11-24T20:26:23.877Z,9.80
2022-11-24T20:28:52.917Z,9.70
2022-11-24T20:31:24.514Z,9.70
2022-11-24T20:33:52.439Z,9.70
2022-11-24T20:36:22.766Z,9.70
2022-11-24T20:38:51.378Z,9.70
2022-11-24T20:41:21.393Z,9.70
2022-11-24T20:43:50.788Z,9.70
2022-11-24T20:46:20.829Z,9.70
2022-11-24T20:48:50.405Z,9.70
2022-11-24T20:51:23.146Z,9.70
2022-11-24T20:53:52.205Z,9.60
2022-11-24T20:56:22.758Z,9.60
2022-11-24T20:58:50.844Z,9.60
2022-11-24T21:01:20.565Z,9.60
2022-11-24T21:03:54.966Z,9.50
2022-11-24T21:06:23.660Z,9.50
2022-11-24T21:08:57.858Z,9.50
2022-11-24T21:11:32.622Z,9.50
2022-11-24T21:14:00.730Z,9.50
2022-11-24T21:16:35.496Z,9.50
2022-11-24T21:19:06.877Z,9.50
2022-11-24T21:21:36.709Z,9.40
2022-11-24T21:24:06.642Z,9.40
2022-11-24T21:26:36.979Z,9.50
2022-11-24T21:29:05.411Z,9.50
2022-11-24T21:31:36.155Z,9.50
2022-11-24T21:34:06.870Z,9.40
2022-11-24T21:36:35.809Z,9.40
2022-11-24T21:39:04.721Z,9.40
2022-11-24T21:41:34.362Z,9.50
2022-11-24T21:44:02.225Z,9.50
2022-11-24T21:46:39.047Z,9.50
2022-11-24T21:49:13.348Z,9.50
2022-11-24T21:51:41.218Z,9.40
2022-11-24T21:54:09.593Z,9.30
2022-11-24T21:56:37.452Z,9.30
2022-11-24T21:59:05.259Z,9.30
2022-11-24T22:01:33.208Z,9.20
2022-11-24T22:04:01.145Z,9.20
2022-11-24T22:06:30.550Z,9.20
2022-11-24T22:08:58.409Z,9.20
2022-11-24T22:11:26.760Z,9.20
2022-11-24T22:13:54.829Z,9.20
2022-11-24T22:16:24.539Z,9.20
2022-11-24T22:18:52.908Z,9.20
2022-11-24T22:21:23.744Z,9.20
2022-11-24T22:23:53.569Z,9.10
2022-11-24T22:26:23.271Z,9.20
2022-11-24T22:28:51.724Z,9.20
2022-11-24T22:31:20.798Z,9.20
2022-11-24T22:33:49.645Z,9.20
2022-11-24T22:36:20.548Z,9.20
2022-11-24T22:38:49.291Z,9.20
2022-11-24T22:41:19.471Z,9.30
2022-11-24T22:43:47.987Z,9.30
2022-11-24T22:46:17.873Z,9.30
2022-11-24T22:48:47.141Z,9.40
2022-11-24T22:51:16.786Z,9.30
2022-11-24T22:53:48.892Z,9.40
2022-11-24T22:56:18.910Z,9.30
2022-11-24T22:58:47.347Z,9.30
2022-11-24T23:01:16.662Z,9.30
2022-11-24T23:03:45.201Z,9.30
2022-11-24T23:06:15.483Z,9.30
2022-11-24T23:08:43.617Z,9.20
2022-11-24T23:11:13.255Z,9.30
2022-11-24T23:13:43.346Z,9.30
2022-11-24T23:16:12.959Z,9.30
2022-11-24T23:18:41.518Z,9.30
2022-11-24T23:21:11.974Z,9.30
2022-11-24T23:23:40.371Z,9.30
2022-11-24T23:26:10.273Z,9.30
2022-11-24T23:28:38.401Z,9.40
2022-11-24T23:31:10.267Z,9.40
2022-11-24T23:33:38.733Z,9.40
2022-11-24T23:36:08.609Z,9.50
2022-11-24T23:38:36.527Z,9.50
2022-11-24T23:41:06.185Z,9.50
2022-11-24T23:43:34.781Z,9.50
2022-11-24T23:46:03.858Z,9.50
2022-11-24T23:48:33.741Z,9.50
2022-11-24T23:51:05.620Z,9.50
2022-11-24T23:53:33.958Z,9.50
2022-11-24T23:56:01.994Z,9.50
2022-11-24T23:58:30.370Z,9.50
